sensor_id;sensor_type;location;lat;lon;timestamp;temperature;humidity
39931;DHT22;26635;-35.248;149.138;2024-01-11T00:02:20;26.50;77.60
39931;DHT22;26635;-35.248;149.138;2024-01-11T00:04:51;26.80;77.10
39931;DHT22;26635;-35.248;149.138;2024-01-11T00:07:21;26.90;74.40
39931;DHT22;26635;-35.248;149.138;2024-01-11T00:09:52;26.80;74.50
39931;DHT22;26635;-35.248;149.138;2024-01-11T00:12:22;27.00;76.40
39931;DHT22;26635;-35.248;149.138;2024-01-11T00:14:53;27.10;76.70
39931;DHT22;26635;-35.248;149.138;2024-01-11T00:17:24;27.10;75.80
39931;DHT22;26635;-35.248;149.138;2024-01-11T00:19:55;27.20;75.10
39931;DHT22;26635;-35.248;149.138;2024-01-11T00:22:25;27.20;74.70
39931;DHT22;26635;-35.248;149.138;2024-01-11T00:24:56;27.10;74.50
39931;DHT22;26635;-35.248;149.138;2024-01-11T00:27:26;27.10;74.90
39931;DHT22;26635;-35.248;149.138;2024-01-11T00:29:57;27.00;74.70
39931;DHT22;26635;-35.248;149.138;2024-01-11T00:32:27;27.10;74.40
39931;DHT22;26635;-35.248;149.138;2024-01-11T00:34:58;27.20;74.10
39931;DHT22;26635;-35.248;149.138;2024-01-11T00:37:28;27.20;74.50
39931;DHT22;26635;-35.248;149.138;2024-01-11T00:39:59;27.30;75.10
39931;DHT22;26635;-35.248;149.138;2024-01-11T00:42:29;27.20;73.80
39931;DHT22;26635;-35.248;149.138;2024-01-11T00:45:00;27.20;73.90
39931;DHT22;26635;-35.248;149.138;2024-01-11T00:47:31;27.10;74.90
39931;DHT22;26635;-35.248;149.138;2024-01-11T00:50:01;27.10;74.20
39931;DHT22;26635;-35.248;149.138;2024-01-11T00:52:32;27.30;73.20
39931;DHT22;26635;-35.248;149.138;2024-01-11T00:55:02;27.30;73.10
39931;DHT22;26635;-35.248;149.138;2024-01-11T00:57:33;27.40;72.30
39931;DHT22;26635;-35.248;149.138;2024-01-11T01:00:03;27.40;71.70
39931;DHT22;26635;-35.248;149.138;2024-01-11T01:02:34;27.30;70.80
39931;DHT22;26635;-35.248;149.138;2024-01-11T01:05:05;27.20;71.80
39931;DHT22;26635;-35.248;149.138;2024-01-11T01:07:36;27.30;72.40
39931;DHT22;26635;-35.248;149.138;2024-01-11T01:10:07;27.30;72.80
39931;DHT22;26635;-35.248;149.138;2024-01-11T01:12:38;27.40;74.00
39931;DHT22;26635;-35.248;149.138;2024-01-11T01:15:12;27.60;72.10
39931;DHT22;26635;-35.248;149.138;2024-01-11T01:18:02;27.70;71.60
39931;DHT22;26635;-35.248;149.138;2024-01-11T01:21:39;27.90;71.00
39931;DHT22;26635;-35.248;149.138;2024-01-11T01:24:06;28.20;70.00
39931;DHT22;26635;-35.248;149.138;2024-01-11T01:27:12;28.50;69.80
39931;DHT22;26635;-35.248;149.138;2024-01-11T01:29:42;28.50;69.00
39931;DHT22;26635;-35.248;149.138;2024-01-11T01:32:13;28.70;70.30
39931;DHT22;26635;-35.248;149.138;2024-01-11T01:34:43;28.90;69.80
39931;DHT22;26635;-35.248;149.138;2024-01-11T01:37:15;29.10;69.30
39931;DHT22;26635;-35.248;149.138;2024-01-11T01:39:46;29.40;67.90
39931;DHT22;26635;-35.248;149.138;2024-01-11T01:42:16;29.70;67.20
39931;DHT22;26635;-35.248;149.138;2024-01-11T01:44:47;29.70;65.60
39931;DHT22;26635;-35.248;149.138;2024-01-11T01:47:18;29.50;64.60
39931;DHT22;26635;-35.248;149.138;2024-01-11T01:49:49;29.50;65.80
39931;DHT22;26635;-35.248;149.138;2024-01-11T01:52:20;29.70;67.00
39931;DHT22;26635;-35.248;149.138;2024-01-11T01:54:51;29.90;67.40
39931;DHT22;26635;-35.248;149.138;2024-01-11T01:57:22;30.00;64.20
39931;DHT22;26635;-35.248;149.138;2024-01-11T01:59:53;29.70;64.30
39931;DHT22;26635;-35.248;149.138;2024-01-11T02:02:24;29.70;65.80
39931;DHT22;26635;-35.248;149.138;2024-01-11T02:04:54;29.80;67.50
39931;DHT22;26635;-35.248;149.138;2024-01-11T02:07:25;29.90;64.50
39931;DHT22;26635;-35.248;149.138;2024-01-11T02:09:56;29.90;65.10
39931;DHT22;26635;-35.248;149.138;2024-01-11T02:12:27;29.60;65.50
39931;DHT22;26635;-35.248;149.138;2024-01-11T02:14:58;29.50;66.50
39931;DHT22;26635;-35.248;149.138;2024-01-11T02:17:29;29.70;66.40
39931;DHT22;26635;-35.248;149.138;2024-01-11T02:20:00;30.00;64.90
39931;DHT22;26635;-35.248;149.138;2024-01-11T02:22:35;30.40;64.60
39931;DHT22;26635;-35.248;149.138;2024-01-11T02:25:06;30.40;64.40
39931;DHT22;26635;-35.248;149.138;2024-01-11T02:27:50;30.20;63.00
39931;DHT22;26635;-35.248;149.138;2024-01-11T02:30:20;30.30;64.70
39931;DHT22;26635;-35.248;149.138;2024-01-11T02:32:52;30.20;64.40
39931;DHT22;26635;-35.248;149.138;2024-01-11T02:35:25;30.10;63.80
39931;DHT22;26635;-35.248;149.138;2024-01-11T02:37:57;30.20;63.50
39931;DHT22;26635;-35.248;149.138;2024-01-11T02:40:30;30.30;63.40
39931;DHT22;26635;-35.248;149.138;2024-01-11T02:43:10;30.10;63.40
39931;DHT22;26635;-35.248;149.138;2024-01-11T02:45:41;29.80;64.40
39931;DHT22;26635;-35.248;149.138;2024-01-11T02:48:12;29.90;64.30
39931;DHT22;26635;-35.248;149.138;2024-01-11T02:50:43;30.00;65.20
39931;DHT22;26635;-35.248;149.138;2024-01-11T02:53:14;29.90;63.10
39931;DHT22;26635;-35.248;149.138;2024-01-11T02:55:45;29.90;64.10
39931;DHT22;26635;-35.248;149.138;2024-01-11T02:58:16;30.20;65.60
39931;DHT22;26635;-35.248;149.138;2024-01-11T03:00:46;30.30;64.90
39931;DHT22;26635;-35.248;149.138;2024-01-11T03:03:17;30.20;62.90
39931;DHT22;26635;-35.248;149.138;2024-01-11T03:05:48;30.10;64.40
39931;DHT22;26635;-35.248;149.138;2024-01-11T03:08:22;30.10;65.30
39931;DHT22;26635;-35.248;149.138;2024-01-11T03:10:56;30.00;63.60
39931;DHT22;26635;-35.248;149.138;2024-01-11T03:13:27;29.90;64.80
39931;DHT22;26635;-35.248;149.138;2024-01-11T03:15:58;29.80;64.40
39931;DHT22;26635;-35.248;149.138;2024-01-11T03:18:28;29.70;65.00
39931;DHT22;26635;-35.248;149.138;2024-01-11T03:21:00;29.80;64.10
39931;DHT22;26635;-35.248;149.138;2024-01-11T03:23:31;30.00;63.90
39931;DHT22;26635;-35.248;149.138;2024-01-11T03:26:02;30.00;64.30
39931;DHT22;26635;-35.248;149.138;2024-01-11T03:28:32;29.70;65.50
39931;DHT22;26635;-35.248;149.138;2024-01-11T03:31:03;29.40;66.00
39931;DHT22;26635;-35.248;149.138;2024-01-11T03:33:33;29.20;66.80
39931;DHT22;26635;-35.248;149.138;2024-01-11T03:36:08;29.20;68.20
39931;DHT22;26635;-35.248;149.138;2024-01-11T03:38:38;29.30;68.40
39931;DHT22;26635;-35.248;149.138;2024-01-11T03:41:09;29.70;66.40
39931;DHT22;26635;-35.248;149.138;2024-01-11T03:43:40;29.90;66.30
39931;DHT22;26635;-35.248;149.138;2024-01-11T03:46:11;30.10;65.80
39931;DHT22;26635;-35.248;149.138;2024-01-11T03:48:41;30.40;65.70
39931;DHT22;26635;-35.248;149.138;2024-01-11T03:51:12;30.60;64.90
39931;DHT22;26635;-35.248;149.138;2024-01-11T03:53:42;30.60;63.90
39931;DHT22;26635;-35.248;149.138;2024-01-11T03:56:13;30.60;63.00
39931;DHT22;26635;-35.248;149.138;2024-01-11T03:58:43;30.60;61.40
39931;DHT22;26635;-35.248;149.138;2024-01-11T04:01:14;30.40;63.60
39931;DHT22;26635;-35.248;149.138;2024-01-11T04:03:45;30.00;64.00
39931;DHT22;26635;-35.248;149.138;2024-01-11T04:06:25;29.50;63.80
39931;DHT22;26635;-35.248;149.138;2024-01-11T04:08:55;29.40;64.40
39931;DHT22;26635;-35.248;149.138;2024-01-11T04:11:29;29.40;65.30
39931;DHT22;26635;-35.248;149.138;2024-01-11T04:14:00;29.30;65.40
39931;DHT22;26635;-35.248;149.138;2024-01-11T04:16:31;29.10;66.00
39931;DHT22;26635;-35.248;149.138;2024-01-11T04:19:02;29.00;66.30
39931;DHT22;26635;-35.248;149.138;2024-01-11T04:21:33;29.00;67.40
39931;DHT22;26635;-35.248;149.138;2024-01-11T04:24:04;28.90;67.60
39931;DHT22;26635;-35.248;149.138;2024-01-11T04:26:38;28.70;68.70
39931;DHT22;26635;-35.248;149.138;2024-01-11T04:29:08;28.40;69.10
39931;DHT22;26635;-35.248;149.138;2024-01-11T04:31:39;28.50;68.10
39931;DHT22;26635;-35.248;149.138;2024-01-11T04:34:09;28.70;68.80
39931;DHT22;26635;-35.248;149.138;2024-01-11T04:36:40;28.90;69.10
39931;DHT22;26635;-35.248;149.138;2024-01-11T04:39:10;29.00;66.50
39931;DHT22;26635;-35.248;149.138;2024-01-11T04:41:41;29.10;66.90
39931;DHT22;26635;-35.248;149.138;2024-01-11T04:44:12;29.20;65.90
39931;DHT22;26635;-35.248;149.138;2024-01-11T04:46:43;29.20;66.80
39931;DHT22;26635;-35.248;149.138;2024-01-11T04:49:13;29.30;67.20
39931;DHT22;26635;-35.248;149.138;2024-01-11T04:51:44;29.30;66.90
39931;DHT22;26635;-35.248;149.138;2024-01-11T04:54:14;29.30;66.10
39931;DHT22;26635;-35.248;149.138;2024-01-11T04:56:45;29.30;68.60
39931;DHT22;26635;-35.248;149.138;2024-01-11T04:59:15;29.30;65.60
39931;DHT22;26635;-35.248;149.138;2024-01-11T05:01:46;29.30;65.60
39931;DHT22;26635;-35.248;149.138;2024-01-11T05:04:17;29.20;65.90
39931;DHT22;26635;-35.248;149.138;2024-01-11T05:06:47;29.10;65.20
39931;DHT22;26635;-35.248;149.138;2024-01-11T05:09:18;29.00;65.60
39931;DHT22;26635;-35.248;149.138;2024-01-11T05:11:48;29.00;65.70
39931;DHT22;26635;-35.248;149.138;2024-01-11T05:14:19;28.90;65.60
39931;DHT22;26635;-35.248;149.138;2024-01-11T05:16:50;28.90;66.00
39931;DHT22;26635;-35.248;149.138;2024-01-11T05:19:20;28.90;66.30
39931;DHT22;26635;-35.248;149.138;2024-01-11T05:21:51;28.90;66.20
39931;DHT22;26635;-35.248;149.138;2024-01-11T05:24:21;28.90;66.50
39931;DHT22;26635;-35.248;149.138;2024-01-11T05:26:51;28.90;66.70
39931;DHT22;26635;-35.248;149.138;2024-01-11T05:29:22;28.90;67.30
39931;DHT22;26635;-35.248;149.138;2024-01-11T05:31:52;28.80;66.70
39931;DHT22;26635;-35.248;149.138;2024-01-11T05:34:23;28.80;66.20
39931;DHT22;26635;-35.248;149.138;2024-01-11T05:36:54;28.70;66.30
39931;DHT22;26635;-35.248;149.138;2024-01-11T05:39:27;28.70;66.60
39931;DHT22;26635;-35.248;149.138;2024-01-11T05:41:57;28.70;66.70
39931;DHT22;26635;-35.248;149.138;2024-01-11T05:44:28;28.60;66.40
39931;DHT22;26635;-35.248;149.138;2024-01-11T05:46:58;28.60;67.50
39931;DHT22;26635;-35.248;149.138;2024-01-11T05:49:29;28.60;67.20
39931;DHT22;26635;-35.248;149.138;2024-01-11T05:51:59;28.50;67.50
39931;DHT22;26635;-35.248;149.138;2024-01-11T05:54:30;28.50;66.20
39931;DHT22;26635;-35.248;149.138;2024-01-11T05:57:01;28.50;66.80
39931;DHT22;26635;-35.248;149.138;2024-01-11T05:59:32;28.50;67.30
39931;DHT22;26635;-35.248;149.138;2024-01-11T06:02:02;28.40;67.70
39931;DHT22;26635;-35.248;149.138;2024-01-11T06:04:33;28.40;68.00
39931;DHT22;26635;-35.248;149.138;2024-01-11T06:07:04;28.40;68.20
39931;DHT22;26635;-35.248;149.138;2024-01-11T06:09:35;28.30;67.70
39931;DHT22;26635;-35.248;149.138;2024-01-11T06:12:06;28.30;67.30
39931;DHT22;26635;-35.248;149.138;2024-01-11T06:14:38;28.40;67.40
39931;DHT22;26635;-35.248;149.138;2024-01-11T06:17:08;28.30;67.30
39931;DHT22;26635;-35.248;149.138;2024-01-11T06:19:40;28.10;68.30
39931;DHT22;26635;-35.248;149.138;2024-01-11T06:22:11;28.00;68.40
39931;DHT22;26635;-35.248;149.138;2024-01-11T06:24:41;28.00;68.40
39931;DHT22;26635;-35.248;149.138;2024-01-11T06:27:12;27.90;68.80
39931;DHT22;26635;-35.248;149.138;2024-01-11T06:29:42;27.80;69.30
39931;DHT22;26635;-35.248;149.138;2024-01-11T06:32:13;27.80;68.60
39931;DHT22;26635;-35.248;149.138;2024-01-11T06:34:43;27.80;68.90
39931;DHT22;26635;-35.248;149.138;2024-01-11T06:37:15;27.80;69.00
39931;DHT22;26635;-35.248;149.138;2024-01-11T06:39:46;27.80;69.20
39931;DHT22;26635;-35.248;149.138;2024-01-11T06:42:16;27.70;69.80
39931;DHT22;26635;-35.248;149.138;2024-01-11T06:44:47;27.70;69.70
39931;DHT22;26635;-35.248;149.138;2024-01-11T06:47:17;27.60;69.10
39931;DHT22;26635;-35.248;149.138;2024-01-11T06:49:48;27.50;68.20
39931;DHT22;26635;-35.248;149.138;2024-01-11T06:52:19;27.50;70.10
39931;DHT22;26635;-35.248;149.138;2024-01-11T06:54:49;27.40;69.20
39931;DHT22;26635;-35.248;149.138;2024-01-11T06:57:19;27.30;69.10
39931;DHT22;26635;-35.248;149.138;2024-01-11T06:59:50;27.20;69.10
39931;DHT22;26635;-35.248;149.138;2024-01-11T07:02:21;27.20;69.70
39931;DHT22;26635;-35.248;149.138;2024-01-11T07:04:53;27.10;70.10
39931;DHT22;26635;-35.248;149.138;2024-01-11T07:07:23;27.00;70.40
39931;DHT22;26635;-35.248;149.138;2024-01-11T07:09:54;27.00;70.50
39931;DHT22;26635;-35.248;149.138;2024-01-11T07:12:25;26.90;70.10
39931;DHT22;26635;-35.248;149.138;2024-01-11T07:14:56;26.80;70.70
39931;DHT22;26635;-35.248;149.138;2024-01-11T07:17:30;26.80;70.50
39931;DHT22;26635;-35.248;149.138;2024-01-11T07:20:55;26.70;70.60
39931;DHT22;26635;-35.248;149.138;2024-01-11T07:23:27;26.60;71.10
39931;DHT22;26635;-35.248;149.138;2024-01-11T07:25:57;26.60;72.30
39931;DHT22;26635;-35.248;149.138;2024-01-11T07:28:30;26.60;72.70
39931;DHT22;26635;-35.248;149.138;2024-01-11T07:31:01;26.50;72.40
39931;DHT22;26635;-35.248;149.138;2024-01-11T07:33:31;26.40;72.50
39931;DHT22;26635;-35.248;149.138;2024-01-11T07:36:03;26.40;72.60
39931;DHT22;26635;-35.248;149.138;2024-01-11T07:38:33;26.30;73.20
39931;DHT22;26635;-35.248;149.138;2024-01-11T07:41:04;26.30;73.20
39931;DHT22;26635;-35.248;149.138;2024-01-11T07:43:34;26.10;73.20
39931;DHT22;26635;-35.248;149.138;2024-01-11T07:46:20;26.10;73.50
39931;DHT22;26635;-35.248;149.138;2024-01-11T07:49:05;26.00;73.50
39931;DHT22;26635;-35.248;149.138;2024-01-11T07:51:37;25.80;74.30
39931;DHT22;26635;-35.248;149.138;2024-01-11T07:54:08;25.70;74.20
39931;DHT22;26635;-35.248;149.138;2024-01-11T07:56:39;25.70;75.40
39931;DHT22;26635;-35.248;149.138;2024-01-11T07:59:10;25.70;75.00
39931;DHT22;26635;-35.248;149.138;2024-01-11T08:01:43;25.80;75.80
39931;DHT22;26635;-35.248;149.138;2024-01-11T08:04:15;25.70;75.00
39931;DHT22;26635;-35.248;149.138;2024-01-11T08:06:45;25.70;76.00
39931;DHT22;26635;-35.248;149.138;2024-01-11T08:09:16;25.60;75.90
39931;DHT22;26635;-35.248;149.138;2024-01-11T08:11:48;25.50;76.10
39931;DHT22;26635;-35.248;149.138;2024-01-11T08:14:20;25.50;76.60
39931;DHT22;26635;-35.248;149.138;2024-01-11T08:16:51;25.40;76.60
39931;DHT22;26635;-35.248;149.138;2024-01-11T08:19:23;25.20;76.60
39931;DHT22;26635;-35.248;149.138;2024-01-11T08:21:54;25.20;77.20
39931;DHT22;26635;-35.248;149.138;2024-01-11T08:24:26;25.10;77.30
39931;DHT22;26635;-35.248;149.138;2024-01-11T08:26:56;25.00;77.50
39931;DHT22;26635;-35.248;149.138;2024-01-11T08:29:27;24.90;78.20
39931;DHT22;26635;-35.248;149.138;2024-01-11T08:31:57;24.90;78.10
39931;DHT22;26635;-35.248;149.138;2024-01-11T08:34:29;24.70;78.40
39931;DHT22;26635;-35.248;149.138;2024-01-11T08:37:00;24.60;78.80
39931;DHT22;26635;-35.248;149.138;2024-01-11T08:39:30;24.50;79.50
39931;DHT22;26635;-35.248;149.138;2024-01-11T08:42:01;24.40;80.10
39931;DHT22;26635;-35.248;149.138;2024-01-11T08:44:31;24.30;80.50
39931;DHT22;26635;-35.248;149.138;2024-01-11T08:47:02;24.20;80.50
39931;DHT22;26635;-35.248;149.138;2024-01-11T08:49:33;24.10;80.20
39931;DHT22;26635;-35.248;149.138;2024-01-11T08:52:07;24.00;80.60
39931;DHT22;26635;-35.248;149.138;2024-01-11T08:54:38;23.90;81.20
39931;DHT22;26635;-35.248;149.138;2024-01-11T08:57:08;23.80;81.40
39931;DHT22;26635;-35.248;149.138;2024-01-11T08:59:39;23.70;81.90
39931;DHT22;26635;-35.248;149.138;2024-01-11T09:02:09;23.70;81.80
39931;DHT22;26635;-35.248;149.138;2024-01-11T09:04:46;23.70;83.20
39931;DHT22;26635;-35.248;149.138;2024-01-11T09:07:17;23.70;82.10
39931;DHT22;26635;-35.248;149.138;2024-01-11T09:09:47;23.60;82.70
39931;DHT22;26635;-35.248;149.138;2024-01-11T09:12:24;23.60;82.80
39931;DHT22;26635;-35.248;149.138;2024-01-11T09:14:55;23.50;83.10
39931;DHT22;26635;-35.248;149.138;2024-01-11T09:17:25;23.50;83.50
39931;DHT22;26635;-35.248;149.138;2024-01-11T09:19:56;23.50;83.70
39931;DHT22;26635;-35.248;149.138;2024-01-11T09:22:27;23.40;83.50
39931;DHT22;26635;-35.248;149.138;2024-01-11T09:24:59;23.40;83.80
39931;DHT22;26635;-35.248;149.138;2024-01-11T09:27:29;23.20;83.20
39931;DHT22;26635;-35.248;149.138;2024-01-11T09:30:00;23.20;84.10
39931;DHT22;26635;-35.248;149.138;2024-01-11T09:32:30;23.10;85.20
39931;DHT22;26635;-35.248;149.138;2024-01-11T09:35:02;23.10;84.20
39931;DHT22;26635;-35.248;149.138;2024-01-11T09:37:34;23.10;83.90
39931;DHT22;26635;-35.248;149.138;2024-01-11T09:40:05;23.10;84.70
39931;DHT22;26635;-35.248;149.138;2024-01-11T09:42:40;23.00;83.90
39931;DHT22;26635;-35.248;149.138;2024-01-11T09:45:15;22.90;84.10
39931;DHT22;26635;-35.248;149.138;2024-01-11T09:47:46;22.90;84.70
39931;DHT22;26635;-35.248;149.138;2024-01-11T09:50:18;22.80;85.00
39931;DHT22;26635;-35.248;149.138;2024-01-11T09:52:50;22.70;85.40
39931;DHT22;26635;-35.248;149.138;2024-01-11T09:55:20;22.70;85.50
39931;DHT22;26635;-35.248;149.138;2024-01-11T09:57:54;22.70;85.20
39931;DHT22;26635;-35.248;149.138;2024-01-11T10:00:28;22.70;85.20
39931;DHT22;26635;-35.248;149.138;2024-01-11T10:02:59;22.70;85.60
39931;DHT22;26635;-35.248;149.138;2024-01-11T10:05:29;22.70;85.10
39931;DHT22;26635;-35.248;149.138;2024-01-11T10:08:00;22.70;86.00
39931;DHT22;26635;-35.248;149.138;2024-01-11T10:10:31;22.70;84.70
39931;DHT22;26635;-35.248;149.138;2024-01-11T10:13:02;22.70;85.10
39931;DHT22;26635;-35.248;149.138;2024-01-11T10:15:33;22.70;85.00
39931;DHT22;26635;-35.248;149.138;2024-01-11T10:18:04;22.80;85.00
39931;DHT22;26635;-35.248;149.138;2024-01-11T10:20:35;22.80;84.60
39931;DHT22;26635;-35.248;149.138;2024-01-11T10:23:06;22.90;84.10
39931;DHT22;26635;-35.248;149.138;2024-01-11T10:25:37;22.80;83.90
39931;DHT22;26635;-35.248;149.138;2024-01-11T10:28:08;22.80;84.10
39931;DHT22;26635;-35.248;149.138;2024-01-11T10:30:57;22.80;84.20
39931;DHT22;26635;-35.248;149.138;2024-01-11T10:33:28;22.80;83.70
39931;DHT22;26635;-35.248;149.138;2024-01-11T10:35:59;22.70;83.70
39931;DHT22;26635;-35.248;149.138;2024-01-11T10:38:37;22.60;84.10
39931;DHT22;26635;-35.248;149.138;2024-01-11T10:41:09;22.60;84.60
39931;DHT22;26635;-35.248;149.138;2024-01-11T10:43:43;22.70;84.30
39931;DHT22;26635;-35.248;149.138;2024-01-11T10:46:15;22.70;84.40
39931;DHT22;26635;-35.248;149.138;2024-01-11T10:48:56;22.70;83.60
39931;DHT22;26635;-35.248;149.138;2024-01-11T10:51:32;22.70;84.10
39931;DHT22;26635;-35.248;149.138;2024-01-11T10:54:03;22.70;83.80
39931;DHT22;26635;-35.248;149.138;2024-01-11T10:56:34;22.70;83.70
39931;DHT22;26635;-35.248;149.138;2024-01-11T10:59:10;22.60;83.90
39931;DHT22;26635;-35.248;149.138;2024-01-11T11:01:40;22.50;84.20
39931;DHT22;26635;-35.248;149.138;2024-01-11T11:04:12;22.40;83.90
39931;DHT22;26635;-35.248;149.138;2024-01-11T11:06:44;22.40;84.70
39931;DHT22;26635;-35.248;149.138;2024-01-11T11:09:15;22.30;84.60
39931;DHT22;26635;-35.248;149.138;2024-01-11T11:11:48;22.40;85.70
39931;DHT22;26635;-35.248;149.138;2024-01-11T11:14:19;22.40;84.70
39931;DHT22;26635;-35.248;149.138;2024-01-11T11:16:52;22.40;85.20
39931;DHT22;26635;-35.248;149.138;2024-01-11T11:19:23;22.40;84.60
39931;DHT22;26635;-35.248;149.138;2024-01-11T11:21:54;22.40;84.70
39931;DHT22;26635;-35.248;149.138;2024-01-11T11:24:24;22.40;84.80
39931;DHT22;26635;-35.248;149.138;2024-01-11T11:26:55;22.40;85.40
39931;DHT22;26635;-35.248;149.138;2024-01-11T11:29:31;22.40;84.80
39931;DHT22;26635;-35.248;149.138;2024-01-11T11:32:03;22.40;84.90
39931;DHT22;26635;-35.248;149.138;2024-01-11T11:34:44;22.40;84.70
39931;DHT22;26635;-35.248;149.138;2024-01-11T11:37:23;22.40;84.90
39931;DHT22;26635;-35.248;149.138;2024-01-11T11:39:54;22.40;85.30
39931;DHT22;26635;-35.248;149.138;2024-01-11T11:42:27;22.40;85.00
39931;DHT22;26635;-35.248;149.138;2024-01-11T11:45:00;22.50;84.70
39931;DHT22;26635;-35.248;149.138;2024-01-11T11:47:37;22.50;84.30
39931;DHT22;26635;-35.248;149.138;2024-01-11T11:50:11;22.50;84.60
39931;DHT22;26635;-35.248;149.138;2024-01-11T11:52:45;22.50;84.30
39931;DHT22;26635;-35.248;149.138;2024-01-11T11:55:16;22.50;84.10
39931;DHT22;26635;-35.248;149.138;2024-01-11T11:57:48;22.50;84.10
39931;DHT22;26635;-35.248;149.138;2024-01-11T12:00:21;22.50;84.00
39931;DHT22;26635;-35.248;149.138;2024-01-11T12:02:56;22.50;83.90
39931;DHT22;26635;-35.248;149.138;2024-01-11T12:05:27;22.40;84.40
39931;DHT22;26635;-35.248;149.138;2024-01-11T12:07:57;22.30;84.20
39931;DHT22;26635;-35.248;149.138;2024-01-11T12:10:28;22.30;84.20
39931;DHT22;26635;-35.248;149.138;2024-01-11T12:12:59;22.30;84.20
39931;DHT22;26635;-35.248;149.138;2024-01-11T12:15:30;22.30;84.40
39931;DHT22;26635;-35.248;149.138;2024-01-11T12:18:00;22.30;84.30
39931;DHT22;26635;-35.248;149.138;2024-01-11T12:20:31;22.20;84.40
39931;DHT22;26635;-35.248;149.138;2024-01-11T12:23:02;22.20;84.30
39931;DHT22;26635;-35.248;149.138;2024-01-11T12:25:33;22.20;84.50
39931;DHT22;26635;-35.248;149.138;2024-01-11T12:28:05;22.30;84.40
39931;DHT22;26635;-35.248;149.138;2024-01-11T12:30:38;22.30;84.60
39931;DHT22;26635;-35.248;149.138;2024-01-11T12:33:09;22.20;84.40
39931;DHT22;26635;-35.248;149.138;2024-01-11T12:35:40;22.30;84.80
39931;DHT22;26635;-35.248;149.138;2024-01-11T12:38:11;22.30;84.80
39931;DHT22;26635;-35.248;149.138;2024-01-11T12:40:44;22.20;84.20
39931;DHT22;26635;-35.248;149.138;2024-01-11T12:43:16;22.20;84.10
39931;DHT22;26635;-35.248;149.138;2024-01-11T12:45:46;22.20;83.90
39931;DHT22;26635;-35.248;149.138;2024-01-11T12:48:17;22.20;84.70
39931;DHT22;26635;-35.248;149.138;2024-01-11T12:50:48;22.10;84.70
39931;DHT22;26635;-35.248;149.138;2024-01-11T12:53:32;22.10;84.70
39931;DHT22;26635;-35.248;149.138;2024-01-11T12:56:07;22.10;84.70
39931;DHT22;26635;-35.248;149.138;2024-01-11T12:58:41;22.00;85.10
39931;DHT22;26635;-35.248;149.138;2024-01-11T13:01:12;22.00;85.00
39931;DHT22;26635;-35.248;149.138;2024-01-11T13:03:47;22.00;86.00
39931;DHT22;26635;-35.248;149.138;2024-01-11T13:06:17;21.90;85.50
39931;DHT22;26635;-35.248;149.138;2024-01-11T13:08:49;21.90;85.70
39931;DHT22;26635;-35.248;149.138;2024-01-11T13:11:20;21.80;86.10
39931;DHT22;26635;-35.248;149.138;2024-01-11T13:13:51;21.70;86.30
39931;DHT22;26635;-35.248;149.138;2024-01-11T13:16:21;21.60;86.50
39931;DHT22;26635;-35.248;149.138;2024-01-11T13:18:54;21.60;86.50
39931;DHT22;26635;-35.248;149.138;2024-01-11T13:21:25;21.60;87.10
39931;DHT22;26635;-35.248;149.138;2024-01-11T13:23:56;21.50;87.30
39931;DHT22;26635;-35.248;149.138;2024-01-11T13:26:27;21.40;87.60
39931;DHT22;26635;-35.248;149.138;2024-01-11T13:28:59;21.40;88.40
39931;DHT22;26635;-35.248;149.138;2024-01-11T13:31:30;21.40;88.80
39931;DHT22;26635;-35.248;149.138;2024-01-11T13:34:02;21.40;88.70
39931;DHT22;26635;-35.248;149.138;2024-01-11T13:36:33;21.40;88.40
39931;DHT22;26635;-35.248;149.138;2024-01-11T13:39:03;21.40;87.90
39931;DHT22;26635;-35.248;149.138;2024-01-11T13:41:34;21.50;89.10
39931;DHT22;26635;-35.248;149.138;2024-01-11T13:44:05;21.60;88.80
39931;DHT22;26635;-35.248;149.138;2024-01-11T13:46:35;21.60;88.40
39931;DHT22;26635;-35.248;149.138;2024-01-11T13:49:06;21.60;88.20
39931;DHT22;26635;-35.248;149.138;2024-01-11T13:51:36;21.60;87.40
39931;DHT22;26635;-35.248;149.138;2024-01-11T13:54:20;21.60;88.10
39931;DHT22;26635;-35.248;149.138;2024-01-11T13:56:53;21.60;88.00
39931;DHT22;26635;-35.248;149.138;2024-01-11T13:59:25;21.70;87.30
39931;DHT22;26635;-35.248;149.138;2024-01-11T14:01:55;21.70;87.70
39931;DHT22;26635;-35.248;149.138;2024-01-11T14:04:26;21.70;87.30
39931;DHT22;26635;-35.248;149.138;2024-01-11T14:06:56;21.70;86.80
39931;DHT22;26635;-35.248;149.138;2024-01-11T14:09:27;21.70;87.50
39931;DHT22;26635;-35.248;149.138;2024-01-11T14:11:57;21.70;88.10
39931;DHT22;26635;-35.248;149.138;2024-01-11T14:14:27;21.80;87.90
39931;DHT22;26635;-35.248;149.138;2024-01-11T14:17:01;21.70;88.20
39931;DHT22;26635;-35.248;149.138;2024-01-11T14:19:32;21.70;88.00
39931;DHT22;26635;-35.248;149.138;2024-01-11T14:22:02;21.80;88.40
39931;DHT22;26635;-35.248;149.138;2024-01-11T14:24:34;21.80;87.90
39931;DHT22;26635;-35.248;149.138;2024-01-11T14:27:04;21.80;87.90
39931;DHT22;26635;-35.248;149.138;2024-01-11T14:29:36;21.80;88.70
39931;DHT22;26635;-35.248;149.138;2024-01-11T14:32:07;21.80;89.10
39931;DHT22;26635;-35.248;149.138;2024-01-11T14:34:39;21.80;88.40
39931;DHT22;26635;-35.248;149.138;2024-01-11T14:37:11;21.80;88.10
39931;DHT22;26635;-35.248;149.138;2024-01-11T14:39:42;21.80;87.70
39931;DHT22;26635;-35.248;149.138;2024-01-11T14:42:12;21.80;87.70
39931;DHT22;26635;-35.248;149.138;2024-01-11T14:44:44;21.80;87.60
39931;DHT22;26635;-35.248;149.138;2024-01-11T14:47:14;21.80;87.80
39931;DHT22;26635;-35.248;149.138;2024-01-11T14:49:46;21.80;87.60
39931;DHT22;26635;-35.248;149.138;2024-01-11T14:52:17;21.80;88.00
39931;DHT22;26635;-35.248;149.138;2024-01-11T14:54:50;21.90;87.60
39931;DHT22;26635;-35.248;149.138;2024-01-11T14:57:21;21.80;88.00
39931;DHT22;26635;-35.248;149.138;2024-01-11T14:59:52;21.80;87.90
39931;DHT22;26635;-35.248;149.138;2024-01-11T15:02:23;21.80;88.20
39931;DHT22;26635;-35.248;149.138;2024-01-11T15:04:53;21.80;88.00
39931;DHT22;26635;-35.248;149.138;2024-01-11T15:07:24;21.80;87.90
39931;DHT22;26635;-35.248;149.138;2024-01-11T15:09:54;21.80;88.00
39931;DHT22;26635;-35.248;149.138;2024-01-11T15:12:25;21.80;88.70
39931;DHT22;26635;-35.248;149.138;2024-01-11T15:14:55;21.80;88.40
39931;DHT22;26635;-35.248;149.138;2024-01-11T15:17:25;21.80;89.40